Terminal Aerodrome Forecast
Issued by NWS Spokane, WA

Home | Current Version | Previous Version | Text Only | Print | Product List | Glossary On
Versions: 1 2 3 4 5 6 7 8 9 10 11 12 13 14 15 16 17 18 19 20 21
000
FTUS46 KOTX 190549 CCA
TAFEAT
TAF COR
KEAT 190549Z 1906/2006 30005KT P6SM BKN060 OVC080
     FM191300 28007KT P6SM -RA BKN060 OVC080
     FM200300 30005KT P6SM OVC100=

USA.gov is the U.S. government's official web portal to all federal, state and local government web resources and services.